createdAt,value
2022-08-12T00:02:02.810Z,55.00
2022-08-12T00:04:49.885Z,55.49
2022-08-12T00:07:36.021Z,55.26
2022-08-12T00:10:21.415Z,55.37
2022-08-12T00:13:06.731Z,55.72
2022-08-12T00:15:52.096Z,56.03
2022-08-12T00:18:37.077Z,56.12
2022-08-12T00:21:22.291Z,56.49
2022-08-12T00:24:07.865Z,56.66
2022-08-12T00:26:54.821Z,57.43
2022-08-12T00:29:39.642Z,57.98
2022-08-12T00:32:36.156Z,58.84
2022-08-12T00:35:24.460Z,59.54
2022-08-12T00:38:22.521Z,59.80
2022-08-12T00:41:07.653Z,60.33
2022-08-12T00:43:35.871Z,60.41
2022-08-12T00:46:22.116Z,60.71
2022-08-12T00:48:49.704Z,60.84
2022-08-12T00:51:16.890Z,61.45
2022-08-12T00:53:43.597Z,61.11
2022-08-12T00:56:10.984Z,61.23
2022-08-12T00:58:44.181Z,61.60
2022-08-12T01:01:10.668Z,61.08
2022-08-12T01:03:59.399Z,61.63
2022-08-12T01:06:46.162Z,61.98
2022-08-12T01:09:37.706Z,62.48
2022-08-12T01:12:06.417Z,62.63
2022-08-12T01:14:33.197Z,62.72
2022-08-12T01:16:59.858Z,62.82
2022-08-12T01:19:26.413Z,62.42
2022-08-12T01:22:11.844Z,62.65
2022-08-12T01:24:57.045Z,62.98
2022-08-12T01:27:25.869Z,63.16
2022-08-12T01:29:54.046Z,63.07
2022-08-12T01:32:23.824Z,63.25
2022-08-12T01:35:01.301Z,63.73
2022-08-12T01:37:30.576Z,63.66
2022-08-12T01:40:36.793Z,63.70
2022-08-12T01:42:49.072Z,64.80
2022-08-12T01:45:17.696Z,64.62
2022-08-12T01:48:03.902Z,64.38
2022-08-12T01:50:50.487Z,64.26
2022-08-12T01:53:20.939Z,64.29
2022-08-12T01:55:49.368Z,64.10
2022-08-12T01:58:27.280Z,64.71
2022-08-12T02:01:01.315Z,65.52
2022-08-12T02:04:02.442Z,65.50
2022-08-12T02:06:59.188Z,66.00
2022-08-12T02:10:00.943Z,66.78
2022-08-12T02:12:49.261Z,67.33
2022-08-12T02:15:39.077Z,67.74
2022-08-12T02:18:40.069Z,67.34
2022-08-12T02:21:30.874Z,67.73
2022-08-12T02:23:59.357Z,67.81
2022-08-12T02:26:30.224Z,67.63
2022-08-12T02:28:57.330Z,67.73
2022-08-12T02:31:26.849Z,68.11
2022-08-12T02:33:54.460Z,67.86
2022-08-12T02:36:21.169Z,67.83
2022-08-12T02:38:49.343Z,67.40
2022-08-12T02:41:18.735Z,67.48
2022-08-12T02:43:52.930Z,68.41
2022-08-12T02:46:25.923Z,68.98
2022-08-12T02:48:57.655Z,69.98
2022-08-12T02:51:30.666Z,70.67
2022-08-12T02:54:04.978Z,70.79
2022-08-12T02:56:50.463Z,70.59
2022-08-12T02:59:21.401Z,70.29
2022-08-12T03:01:51.156Z,70.10
2022-08-12T03:04:40.227Z,69.80
2022-08-12T03:07:22.015Z,70.19
2022-08-12T03:10:13.045Z,70.09
2022-08-12T03:12:49.903Z,69.86
2022-08-12T03:15:22.119Z,69.89
2022-08-12T03:18:24.949Z,71.04
2022-08-12T03:20:41.624Z,71.71
2022-08-12T03:23:29.357Z,71.41
2022-08-12T03:26:02.432Z,71.89
2022-08-12T03:28:50.518Z,72.74
2022-08-12T03:31:32.379Z,72.45
2022-08-12T03:34:10.880Z,72.31
2022-08-12T03:36:39.450Z,72.24
2022-08-12T03:39:15.958Z,72.05
2022-08-12T03:41:58.428Z,71.91
2022-08-12T03:44:57.320Z,72.23
2022-08-12T03:47:51.338Z,72.52
2022-08-12T03:50:37.323Z,72.79
2022-08-12T03:53:26.044Z,73.65
2022-08-12T03:56:11.527Z,73.43
2022-08-12T03:58:57.105Z,73.28
2022-08-12T04:01:25.912Z,73.24
2022-08-12T04:03:52.632Z,73.81
2022-08-12T04:06:34.930Z,74.50
2022-08-12T04:09:14.675Z,74.50
2022-08-12T04:12:02.849Z,74.10
2022-08-12T04:14:29.538Z,73.82
2022-08-12T04:16:57.116Z,73.77
2022-08-12T04:19:26.079Z,73.54
2022-08-12T04:22:01.391Z,73.83
2022-08-12T04:24:31.917Z,73.95
2022-08-12T04:26:58.339Z,73.82
2022-08-12T04:30:31.590Z,74.18
2022-08-12T04:32:14.002Z,74.24
2022-08-12T04:34:41.830Z,73.84
2022-08-12T04:37:08.287Z,73.25
2022-08-12T04:39:35.218Z,72.25
2022-08-12T04:42:01.717Z,72.04
2022-08-12T04:44:28.481Z,72.29
2022-08-12T04:46:55.939Z,72.17
2022-08-12T04:49:24.274Z,73.04
2022-08-12T04:51:57.604Z,72.95
2022-08-12T04:54:27.062Z,72.79
2022-08-12T04:57:03.925Z,72.86
2022-08-12T04:59:46.804Z,72.70
2022-08-12T05:02:16.795Z,72.81
2022-08-12T05:04:48.361Z,72.02
2022-08-12T05:07:14.820Z,71.47
2022-08-12T05:10:00.998Z,71.23
2022-08-12T05:12:34.156Z,70.60
2022-08-12T05:15:01.040Z,70.06
2022-08-12T05:17:28.358Z,69.32
2022-08-12T05:19:57.331Z,68.54
2022-08-12T05:22:26.277Z,67.56
2022-08-12T05:24:52.918Z,67.00
2022-08-12T05:27:19.711Z,66.36
2022-08-12T05:30:07.325Z,65.82
2022-08-12T05:32:36.667Z,64.39
2022-08-12T05:35:06.776Z,63.69
2022-08-12T05:37:34.888Z,62.64
2022-08-12T05:40:06.856Z,62.36
2022-08-12T05:42:36.808Z,61.40
2022-08-12T05:45:03.802Z,61.08
2022-08-12T05:47:44.819Z,60.76
2022-08-12T05:50:16.933Z,59.44
2022-08-12T05:52:44.029Z,59.04
2022-08-12T05:55:11.757Z,57.95
2022-08-12T05:57:39.196Z,58.47
2022-08-12T06:00:06.824Z,58.35
2022-08-12T06:02:35.098Z,57.66
2022-08-12T06:05:02.689Z,56.79
2022-08-12T06:08:00.661Z,56.27
2022-08-12T06:10:32.333Z,55.08
2022-08-12T06:13:01.071Z,54.82
2022-08-12T06:15:28.129Z,53.74
2022-08-12T06:17:55.501Z,53.48
2022-08-12T06:20:29.369Z,53.21
2022-08-12T06:22:57.088Z,52.63
2022-08-12T06:25:27.817Z,51.87
2022-08-12T06:28:07.915Z,51.16
2022-08-12T06:30:39.357Z,50.32
2022-08-12T06:33:24.507Z,50.46
2022-08-12T06:35:57.310Z,49.15
2022-08-12T06:38:25.941Z,48.37
2022-08-12T06:41:13.566Z,48.15
2022-08-12T06:44:06.335Z,48.36
2022-08-12T06:46:29.801Z,47.85
2022-08-12T06:48:59.651Z,47.44
2022-08-12T06:51:28.947Z,47.23
2022-08-12T06:53:56.182Z,47.25
2022-08-12T06:56:39.970Z,47.50
2022-08-12T06:59:11.628Z,47.27
2022-08-12T07:01:38.695Z,45.98
2022-08-12T07:04:26.345Z,46.38
2022-08-12T07:06:51.688Z,46.25
2022-08-12T07:10:00.107Z,45.65
2022-08-12T07:12:04.839Z,44.95
2022-08-12T07:14:31.594Z,44.72
2022-08-12T07:17:02.256Z,45.49
2022-08-12T07:19:40.417Z,45.48
2022-08-12T07:22:07.940Z,44.46
2022-08-12T07:24:34.370Z,44.56
2022-08-12T07:27:00.854Z,45.49
2022-08-12T07:30:03.719Z,45.69
2022-08-12T07:32:15.191Z,44.83
2022-08-12T07:34:42.625Z,44.72
2022-08-12T07:37:09.660Z,44.59
2022-08-12T07:39:36.153Z,44.71
2022-08-12T07:42:03.222Z,44.26
2022-08-12T07:44:29.842Z,44.72
2022-08-12T07:46:56.332Z,44.25
2022-08-12T07:49:24.712Z,43.19
2022-08-12T07:51:51.149Z,43.73
2022-08-12T07:54:17.684Z,43.36
2022-08-12T07:56:44.221Z,42.51
2022-08-12T07:59:11.226Z,42.25
2022-08-12T08:01:38.820Z,42.27
2022-08-12T08:04:24.546Z,42.21
2022-08-12T08:06:51.164Z,41.99
2022-08-12T08:09:21.244Z,42.32
2022-08-12T08:12:06.930Z,42.82
2022-08-12T08:14:33.640Z,42.81
2022-08-12T08:17:03.530Z,42.56
2022-08-12T08:19:33.623Z,42.72
2022-08-12T08:22:20.109Z,43.01
2022-08-12T08:25:35.037Z,42.49
2022-08-12T08:27:53.371Z,41.80
2022-08-12T08:30:20.231Z,42.58
2022-08-12T08:32:46.711Z,42.11
2022-08-12T08:35:14.691Z,42.29
2022-08-12T08:37:46.247Z,41.48
2022-08-12T08:40:33.652Z,41.35
2022-08-12T08:43:00.130Z,42.79
2022-08-12T08:45:28.441Z,42.93
2022-08-12T08:47:58.378Z,42.51
2022-08-12T08:50:27.256Z,42.57
2022-08-12T08:52:53.793Z,42.33
2022-08-12T08:55:27.440Z,42.06
2022-08-12T08:57:59.961Z,41.99
2022-08-12T09:00:26.705Z,41.72
2022-08-12T09:02:59.354Z,41.59
2022-08-12T09:05:27.250Z,41.77
2022-08-12T09:08:09.133Z,41.80
2022-08-12T09:10:45.188Z,42.45
2022-08-12T09:14:10.170Z,42.67
2022-08-12T09:16:21.742Z,42.54
2022-08-12T09:18:52.199Z,42.18
2022-08-12T09:21:19.381Z,42.73
2022-08-12T09:30:11.331Z,41.56
2022-08-12T09:32:11.625Z,41.59
2022-08-12T09:34:56.736Z,41.07
2022-08-12T09:37:26.552Z,41.12
2022-08-12T09:40:06.163Z,40.32
2022-08-12T09:43:16.808Z,39.98
2022-08-12T09:46:11.713Z,40.44
2022-08-12T09:48:40.219Z,39.99
2022-08-12T09:51:22.163Z,39.23
2022-08-12T09:54:05.442Z,39.21
2022-08-12T09:56:58.097Z,38.96
2022-08-12T10:00:15.968Z,38.80
2022-08-12T10:02:42.913Z,38.82
2022-08-12T10:04:56.399Z,38.46
2022-08-12T10:07:25.161Z,38.38
2022-08-12T10:09:57.288Z,37.88
2022-08-12T10:13:07.082Z,38.57
2022-08-12T10:16:02.601Z,38.72
2022-08-12T10:18:20.030Z,37.40
2022-08-12T10:20:46.731Z,37.95
2022-08-12T10:23:13.246Z,37.71
2022-08-12T10:26:35.823Z,37.41
2022-08-12T10:30:01.481Z,37.12
2022-08-12T10:32:21.107Z,37.25
2022-08-12T10:34:40.444Z,36.50
2022-08-12T10:38:03.716Z,36.39
2022-08-12T10:40:11.431Z,36.35
2022-08-12T10:43:00.656Z,37.01
2022-08-12T10:45:27.675Z,35.96
2022-08-12T10:48:07.145Z,35.87
2022-08-12T10:51:01.235Z,36.24
2022-08-12T10:53:44.937Z,36.19
2022-08-12T10:56:17.627Z,36.80
2022-08-12T10:58:46.891Z,36.44
2022-08-12T11:01:50.440Z,35.99
2022-08-12T11:04:35.646Z,35.62
2022-08-12T11:07:03.453Z,36.64
2022-08-12T11:09:51.321Z,36.42
2022-08-12T11:12:56.759Z,36.21
2022-08-12T11:15:19.492Z,36.00
2022-08-12T11:17:52.970Z,36.29
2022-08-12T11:20:22.154Z,35.99
2022-08-12T11:23:03.949Z,35.83
2022-08-12T11:25:55.847Z,35.57
2022-08-12T11:28:33.383Z,36.09
2022-08-12T11:31:01.947Z,36.41
2022-08-12T11:34:06.624Z,36.36
2022-08-12T11:36:15.952Z,35.93
2022-08-12T11:38:43.513Z,36.03
2022-08-12T11:41:28.109Z,36.54
2022-08-12T11:44:35.301Z,36.54
2022-08-12T11:46:47.132Z,36.70
2022-08-12T11:49:20.474Z,36.83
2022-08-12T11:51:58.691Z,36.65
2022-08-12T11:54:25.142Z,36.33
2022-08-12T11:56:59.675Z,35.82
2022-08-12T12:02:18.968Z,36.56
2022-08-12T12:04:46.805Z,37.18
2022-08-12T12:07:20.110Z,36.27
2022-08-12T12:09:51.846Z,35.88
2022-08-12T12:12:19.780Z,36.17
2022-08-12T12:14:55.043Z,35.92
2022-08-12T12:17:24.602Z,35.14
2022-08-12T12:19:53.125Z,35.09
2022-08-12T12:22:23.557Z,35.23
2022-08-12T12:24:54.225Z,35.13
2022-08-12T12:28:00.034Z,35.10
2022-08-12T12:30:19.553Z,35.62
2022-08-12T12:32:54.397Z,36.08
2022-08-12T12:36:19.857Z,36.13
2022-08-12T12:38:12.825Z,36.83
2022-08-12T12:40:43.780Z,36.40
2022-08-12T12:43:11.523Z,36.64
2022-08-12T12:45:39.449Z,35.94
2022-08-12T12:48:14.098Z,36.20
2022-08-12T12:50:45.507Z,36.27
2022-08-12T12:54:06.490Z,36.33
2022-08-12T12:56:15.791Z,35.57
2022-08-12T12:58:43.470Z,35.24
2022-08-12T13:01:26.570Z,35.09
2022-08-12T13:04:02.109Z,34.68
2022-08-12T13:06:31.536Z,35.75
2022-08-12T13:09:02.504Z,36.32
2022-08-12T13:11:40.641Z,36.93
2022-08-12T13:14:29.165Z,37.51
2022-08-12T13:17:02.451Z,36.65
2022-08-12T13:19:44.537Z,37.00
2022-08-12T13:22:20.530Z,36.78
2022-08-12T13:24:54.541Z,36.89
2022-08-12T13:27:23.116Z,37.29
2022-08-12T13:29:58.165Z,37.27
2022-08-12T13:32:31.609Z,37.54
2022-08-12T13:35:04.459Z,37.65
2022-08-12T13:37:54.893Z,37.97
2022-08-12T13:40:22.719Z,38.13
2022-08-12T13:42:57.643Z,38.79
2022-08-12T13:45:29.770Z,38.58
2022-08-12T13:47:58.242Z,38.86
2022-08-12T13:50:32.800Z,38.88
2022-08-12T13:53:16.659Z,38.24
2022-08-12T13:55:59.522Z,38.01
2022-08-12T13:58:28.812Z,38.25
2022-08-12T14:00:58.261Z,38.30
2022-08-12T14:03:28.462Z,38.77
2022-08-12T14:06:15.645Z,38.58
2022-08-12T14:08:43.246Z,39.07
2022-08-12T14:11:12.574Z,40.13
2022-08-12T14:14:04.041Z,39.82
2022-08-12T14:16:46.804Z,39.84
2022-08-12T14:19:21.861Z,40.56
2022-08-12T14:21:59.259Z,40.07
2022-08-12T14:24:30.853Z,40.30
2022-08-12T14:26:58.628Z,40.86
2022-08-12T14:29:55.681Z,41.53
2022-08-12T14:32:16.705Z,41.16
2022-08-12T14:34:44.163Z,40.48
2022-08-12T14:37:13.149Z,40.95
2022-08-12T14:39:57.299Z,40.89
2022-08-12T14:42:26.085Z,41.49
2022-08-12T14:45:00.074Z,41.62
2022-08-12T14:47:34.862Z,42.24
2022-08-12T14:50:58.402Z,42.06
2022-08-12T14:54:55.877Z,41.74
2022-08-12T14:58:25.344Z,41.62
2022-08-12T15:01:11.388Z,41.74
2022-08-12T15:03:56.932Z,40.65
2022-08-12T15:06:44.546Z,41.23
2022-08-12T15:09:15.901Z,41.66
2022-08-12T15:11:54.333Z,41.69
2022-08-12T15:14:21.695Z,41.87
2022-08-12T15:16:48.772Z,41.56
2022-08-12T15:20:31.633Z,41.45
2022-08-12T15:22:38.060Z,41.76
2022-08-12T15:24:49.841Z,41.58
2022-08-12T15:27:22.471Z,41.17
2022-08-12T15:29:58.692Z,41.25
2022-08-12T15:32:32.476Z,41.92
2022-08-12T15:35:00.772Z,42.13
2022-08-12T15:38:08.175Z,42.19
2022-08-12T15:40:14.120Z,42.38
2022-08-12T15:42:40.725Z,42.47
2022-08-12T15:45:21.241Z,42.79
2022-08-12T15:47:53.509Z,42.90
2022-08-12T15:50:41.162Z,42.85
2022-08-12T15:53:15.246Z,42.25
2022-08-12T15:55:46.125Z,42.99
2022-08-12T15:58:13.517Z,42.34
2022-08-12T16:00:43.624Z,42.61
2022-08-12T16:03:13.678Z,42.53
2022-08-12T16:06:12.576Z,42.98
2022-08-12T16:08:36.452Z,42.73
2022-08-12T16:11:07.170Z,43.10
2022-08-12T16:13:44.363Z,43.39
2022-08-12T16:16:22.503Z,43.23
2022-08-12T16:18:52.745Z,42.50
2022-08-12T16:21:51.882Z,42.62
2022-08-12T16:24:11.103Z,42.95
2022-08-12T16:26:40.739Z,42.86
2022-08-12T16:29:15.488Z,43.05
2022-08-12T16:31:43.940Z,43.51
2022-08-12T16:34:25.762Z,43.62
2022-08-12T16:37:03.230Z,43.86
2022-08-12T16:39:59.558Z,43.60
2022-08-12T16:42:22.653Z,43.68
2022-08-12T16:44:55.393Z,44.37
2022-08-12T16:47:23.455Z,44.19
2022-08-12T16:49:55.703Z,44.17
2022-08-12T16:52:22.422Z,44.29
2022-08-12T16:54:49.993Z,44.45
2022-08-12T16:57:17.091Z,44.47
2022-08-12T16:59:53.336Z,44.70
2022-08-12T17:02:33.927Z,44.54
2022-08-12T17:05:04.264Z,44.87
2022-08-12T17:07:36.763Z,45.39
2022-08-12T17:10:12.000Z,45.01
2022-08-12T17:12:39.354Z,45.23
2022-08-12T17:15:50.752Z,44.80
2022-08-12T17:18:42.414Z,44.75
2022-08-12T18:07:01.610Z,47.29
2022-08-12T18:09:32.361Z,47.53
2022-08-12T18:12:24.706Z,47.98
2022-08-12T18:14:58.459Z,48.41
2022-08-12T18:17:27.220Z,48.14
2022-08-12T18:20:05.082Z,48.24
2022-08-12T18:22:35.736Z,48.30
2022-08-12T18:28:54.533Z,48.85
2022-08-12T18:31:43.968Z,49.05
2022-08-12T18:34:12.205Z,49.51
2022-08-12T18:36:39.321Z,49.52
2022-08-12T18:39:19.508Z,49.56
2022-08-12T18:41:47.036Z,49.80
2022-08-12T18:44:13.823Z,50.83
2022-08-12T18:46:46.719Z,50.55
2022-08-12T18:49:31.840Z,51.04
2022-08-12T18:52:04.693Z,50.75
2022-08-12T18:54:35.045Z,51.33
2022-08-12T18:57:07.095Z,51.24
2022-08-12T19:00:00.087Z,51.49
2022-08-12T19:02:32.048Z,52.28
2022-08-12T19:04:58.983Z,52.22
2022-08-12T19:07:29.666Z,52.55
2022-08-12T19:10:13.787Z,52.33
2022-08-12T19:13:00.567Z,52.75
2022-08-12T19:15:29.912Z,52.87
2022-08-12T19:18:01.146Z,53.19
2022-08-12T19:20:30.046Z,53.12
2022-08-12T19:23:02.219Z,53.03
2022-08-12T19:26:00.673Z,53.13
2022-08-12T19:28:30.194Z,53.39
2022-08-12T19:31:56.747Z,53.67
2022-08-12T19:37:20.376Z,53.63
2022-08-12T19:40:08.694Z,53.71
2022-08-12T19:42:42.747Z,54.07
2022-08-12T19:45:13.959Z,53.89
2022-08-12T19:47:43.445Z,54.28
2022-08-12T19:50:11.105Z,54.11
2022-08-12T19:52:40.990Z,54.15
2022-08-12T19:55:11.644Z,54.06
2022-08-12T20:03:59.300Z,54.08
2022-08-12T20:06:27.723Z,54.06
2022-08-12T20:08:57.222Z,53.98
2022-08-12T20:12:13.790Z,54.02
2022-08-12T20:14:18.410Z,54.13
2022-08-12T20:16:57.477Z,54.27
2022-08-12T20:20:05.687Z,54.41
2022-08-12T20:22:24.837Z,54.19
2022-08-12T20:25:02.010Z,54.57
2022-08-12T20:28:04.060Z,54.49
2022-08-12T20:30:20.762Z,54.15
2022-08-12T20:33:18.336Z,54.43
2022-08-12T20:36:06.579Z,54.25
2022-08-12T20:38:32.921Z,54.90
2022-08-12T20:41:00.024Z,54.79
2022-08-12T20:43:28.067Z,54.98
2022-08-12T20:45:58.379Z,55.52
2022-08-12T20:48:26.206Z,56.34
2022-08-12T20:50:56.296Z,56.65
2022-08-12T20:53:33.135Z,57.08
2022-08-12T20:56:30.911Z,57.91
2022-08-12T20:59:01.084Z,57.83
2022-08-12T21:01:36.592Z,58.61
2022-08-12T21:04:31.897Z,58.85
2022-08-12T21:07:08.594Z,58.86
2022-08-12T21:09:40.677Z,58.50
2022-08-12T21:12:28.001Z,59.22
2022-08-12T21:15:17.590Z,59.88
2022-08-12T21:18:07.896Z,59.86
2022-08-12T21:20:35.936Z,60.45
2022-08-12T21:23:05.714Z,61.17
2022-08-12T21:25:35.820Z,60.85
2022-08-12T21:28:11.364Z,61.55
2022-08-12T21:30:54.831Z,61.45
2022-08-12T21:33:30.790Z,61.95
2022-08-12T21:35:58.194Z,62.09
2022-08-12T21:38:34.399Z,62.37
2022-08-12T21:41:07.042Z,62.55
2022-08-12T21:43:45.081Z,62.36
2022-08-12T21:46:34.660Z,62.75
2022-08-12T21:49:04.945Z,62.61
2022-08-12T21:51:50.019Z,63.31
2022-08-12T21:54:23.088Z,63.20
2022-08-12T21:56:55.830Z,62.66
2022-08-12T21:59:22.768Z,62.97
2022-08-12T22:01:49.735Z,63.28
2022-08-12T22:04:36.256Z,63.54
2022-08-12T22:07:03.157Z,63.53
2022-08-12T22:09:43.029Z,64.00
2022-08-12T22:12:28.545Z,64.61
2022-08-12T22:14:55.041Z,64.89
2022-08-12T22:17:21.480Z,65.11
2022-08-12T22:19:50.530Z,65.14
2022-08-12T22:22:17.093Z,65.87
2022-08-12T22:24:47.545Z,66.01
2022-08-12T22:27:31.637Z,65.09
2022-08-12T22:30:19.788Z,65.02
2022-08-12T22:32:51.559Z,65.93
2022-08-12T22:35:55.569Z,66.75
2022-08-12T22:38:23.932Z,67.15
2022-08-12T22:40:57.425Z,67.12
2022-08-12T22:44:00.656Z,67.74
2022-08-12T22:46:52.986Z,67.54
2022-08-12T22:49:36.899Z,68.09
2022-08-12T22:52:13.398Z,67.75
2022-08-12T22:54:59.930Z,67.93
2022-08-12T22:57:49.121Z,67.77
2022-08-12T23:00:27.299Z,67.81
2022-08-12T23:03:02.751Z,69.10
2022-08-12T23:05:57.700Z,69.88
2022-08-12T23:08:17.906Z,69.26
2022-08-12T23:10:45.143Z,69.44
2022-08-12T23:13:43.374Z,69.37
2022-08-12T23:16:10.206Z,69.59
2022-08-12T23:18:54.177Z,69.41
2022-08-12T23:21:24.393Z,69.68
2022-08-12T23:24:08.979Z,69.99
2022-08-12T23:26:55.182Z,70.85
2022-08-12T23:29:25.761Z,70.86
2022-08-12T23:32:03.581Z,70.79
2022-08-12T23:34:34.419Z,70.95
2022-08-12T23:37:00.882Z,71.69
2022-08-12T23:40:13.345Z,72.14
2022-08-12T23:42:16.561Z,71.83
2022-08-12T23:44:43.979Z,72.04
2022-08-12T23:47:11.610Z,72.04
2022-08-12T23:49:58.021Z,72.07
2022-08-12T23:52:34.081Z,73.01
2022-08-12T23:55:23.554Z,73.04
2022-08-12T23:57:51.111Z,73.32
